Tiempo atmosférico en la estación meteorológica de Agulo, Santa Cruz de Tenerife (765 m.)



Fecha
DESCASC
Temp. máxima en grados centígrados (hora)
DESCASC
Temp. mínima en grados centígrados (hora)
DESCASC
Temp. media en grados centígrados
DESCASC
Racha de viento máxima en m/sg (hora)
DESCASC
Velocidad máxima media en intervalos de 10 minutos(hora)
DESCASC
Precipitaciones diarias en mm
DESCASC
Precipitaciones de 00:00 a 06:00 en mm
DESCASC
Precipitaciones de 06:00 a 12:00 en mm
DESCASC
Precipitaciones de 12:00 a 18:00 en mm
DESCASC
Precipitaciones de 18:00 a 24:00 en mm
DESCASC
21-01-2020 13.8 (11:00) 8.2 (00:00) 11 8.89 (14:40) 3.61 (14:50) 13.4 0 0 9.6 3.8
10-01-2020 13.6 (14:50) 11.3 (00:00) 12.5 8.89 (02:10) 4.17 (01:20) 1.6 0 0 1.6 0
23-01-2020 16.7 (15:30) 8.4 (00:00) 12.6 5.28 (12:30) 3.06 (00:20) 1 0 1 0 0
11-01-2020 14.9 (13:20) 10.3 (00:00) 12.6 7.22 (03:40) 3.06 (20:00) 0.8 0.6 0 0 0.2
24-01-2020 17.5 (14:20) 8.4 (00:00) 12.9 7.22 (20:30) 2.78 (20:30) 0.2 0 0 0 0.2
06-01-2020 16.6 (13:10) 10.5 (00:00) 13.6 8.33 (12:10) 3.61 (22:30) 0.2 0 0 0 0.2
18-01-2020 21.6 (13:50) 10.2 (00:00) 15.9 13.06 (11:00) 8.33 (10:00) 0 0 0 0 0
13-01-2020 19.7 (14:50) 8.7 (00:00) 14.2 9.72 (20:50) 6.39 (19:50) 0 0 0 0 0
14-01-2020 17.2 (14:20) 9 (00:00) 13.1 16.11 (08:10) 10.56 (09:00) 0 0 0 0 0
15-01-2020 19 (14:30) 9.3 (00:00) 14.2 10.28 (12:00) 6.94 (03:30) 0 0 0 0 0
16-01-2020 18.8 (12:10) 8.6 (00:00) 13.7 7.22 (06:40) 5.28 (01:50) 0 0 0 0 0
17-01-2020 20.8 (14:20) 9.1 (00:00) 14.9 11.11 (10:50) 6.11 (10:50) 0 0 0 0 0
25-01-2020 16.3 (14:00) 9.8 (00:00) 13 5.83 (07:30) 2.22 (07:30) 0 0 0 0 0
19-01-2020 22.7 (12:30) 11.3 (00:00) 17 10.83 (05:40) 8.33 (03:20) 0 0 0 0 0
20-01-2020 15.4 (15:00) 10 (00:00) 12.7 8.33 (04:10) 2.78 (02:00) 0 0 0 0 0
22-01-2020 15.7 (12:20) 7.1 (00:00) 11.4 5.83 (20:00) 4.44 (19:40) 0 0 0 0 0
27-12-2019 23.4 (14:40) 14.8 (00:00) 19.1 15 (08:00) 10 (08:50) 0 0 0 0 0
12-01-2020 14.4 (10:20) 10.2 (05:20) 12.3 7.78 (20:00) 3.33 (19:30) 0 0 0 0 0
09-01-2020 16.7 (13:40) 10.5 (00:00) 13.6 9.17 (22:30) 5.28 (22:50) 0 0 0 0 0
08-01-2020 14.1 (12:40) 10.3 (00:00) 12.2 9.44 (11:00) 4.44 (13:20) 0 0 0 0 0
07-01-2020 16.1 (13:50) 10.3 (00:00) 13.2 10 (03:50) 4.72 (12:00) 0 0 0 0 0
05-01-2020 16.3 (15:40) 10.1 (00:00) 13.2 6.67 (02:50) 2.78 (02:20) 0 0 0 0 0
04-01-2020 19.7 (14:20) 9.6 (00:00) 14.7 11.67 (04:00) 6.94 (03:10) 0 0 0 0 0
03-01-2020 16.8 (15:10) 9.6 (00:00) 13.2 19.44 (07:50) 11.94 (05:30) 0 0 0 0 0
02-01-2020 18 (15:40) 9.3 (00:00) 13.7 21.39 (07:10) 13.61 (07:20) 0 0 0 0 0
01-01-2020 18.5 (14:50) 10.3 (00:00) 14.4 20.83 (10:00) 13.89 (10:00) 0 0 0 0 0
31-12-2019 23.5 (13:00) 11.7 (00:00) 17.6 11.11 (23:59) 7.22 (23:59) 0 0 0 0 0
29-12-2019 24.8 (14:30) 15.1 (00:00) 19.9 19.44 (09:40) 12.22 (03:30) 0 0 0 0 0
28-12-2019 24.3 (14:40) 17 (00:00) 20.6 13.33 (11:20) 9.17 (11:20) 0 0 0 0 0
30-12-2019 -- (--) -- (--) -- -- (--) -- (--) -- 0 0 0 --

Gráficas

Temp. máximas Temp. mínimas Temp. medias Precipitaciones Rachas de viento máximas Velocidades máximas media en intervalos de 10 minutos

Datos horarios

Fecha y hora oficial Temperatura (ºC) Velocidad del viento (km/h) Dirección del viento Racha (km/h) Dirección de racha Precipitación (mm) Presión (hPa) Tendencia (hPa) Humedad (%)
2020-01-25 23:00:00 10.7 3 Este 8 Este 0 -- -- 95
2020-01-25 22:00:00 11 3 Sudeste 10 Este 0 -- -- 92
2020-01-25 21:00:00 11.2 3 Sur 9 Este 0 -- -- 92
2020-01-25 20:00:00 10.9 0 Calma 12 Norte 0 -- -- 90
2020-01-25 19:00:00 11.1 4 Norte 9 Norte 0 -- -- 86
2020-01-25 18:00:00 13.8 4 Norte 11 Norte 0 -- -- 73
2020-01-25 17:00:00 15 4 Norte 14 Este 0 -- -- 70
2020-01-25 16:00:00 15.7 7 Norte 16 Norte 0 -- -- 65
2020-01-25 15:00:00 15.9 6 Norte 20 Norte 0 -- -- 62
2020-01-25 14:00:00 16.3 5 Nordeste 16 Norte 0 -- -- 68
2020-01-25 13:00:00 14.7 5 Nordeste 14 Nordeste 0 -- -- 72
2020-01-25 12:00:00 14.6 6 Norte 15 Noroeste 0 -- -- 78
2020-01-25 11:00:00 12.2 4 Nordeste 13 Sudeste 0 -- -- 84
2020-01-25 10:00:00 11.9 5 Este 15 Nordeste 0 -- -- 87
2020-01-25 09:00:00 10.9 4 Sur 19 Norte 0 -- -- 96
2020-01-25 08:00:00 10.3 6 Nordeste 21 Norte 0 -- -- 97
2020-01-25 07:00:00 10.2 4 Norte 13 Nordeste 0 -- -- 97
2020-01-25 06:00:00 10.2 7 Norte 18 Nordeste 0 -- -- 97
2020-01-25 05:00:00 10.3 3 Norte 10 Norte 0 -- -- 97
2020-01-25 04:00:00 10.3 4 Nordeste 12 Norte 0 -- -- 97
2020-01-25 03:00:00 10.2 4 Nordeste 10 Norte 0 -- -- 95
2020-01-25 02:00:00 10.5 0 Calma 19 Nordeste 0 -- -- 94
2020-01-25 01:00:00 10.5 3 Norte 11 Norte 0 -- -- 93
2020-01-25 00:00:00 10.8 2 Sudeste 9 Nordeste 0 -- -- 93
2020-01-24 23:00:00 10.7 3 Sudeste 17 Nordeste 0 -- -- 93
2020-01-24 22:00:00 11 4 Nordeste 23 Nordeste 0 -- -- 94
2020-01-24 21:00:00 11.1 7 Nordeste 26 Norte 0 -- -- 95
2020-01-24 20:00:00 11.5 7 Nordeste 21 Nordeste 0.2 -- -- 96
2020-01-24 19:00:00 11.5 4 Nordeste 13 Nordeste 0 -- -- 89
2020-01-24 18:00:00 12.6 5 Norte 17 Norte 0 -- -- 85
2020-01-24 17:00:00 15.6 5 Norte 17 Nordeste 0 -- -- 69
2020-01-24 16:00:00 15.3 8 Norte 20 Norte 0 -- -- 70
2020-01-24 15:00:00 16.1 6 Norte 15 Norte 0 -- -- 73
2020-01-24 14:00:00 15.7 3 Sur 11 Este 0 -- -- 74
2020-01-24 13:00:00 14.5 3 Sudeste 12 Norte 0 -- -- 75
2020-01-24 12:00:00 13.3 3 Nordeste 8 Norte 0 -- -- 66
2020-01-24 11:00:00 14.3 3 Norte 9 Sudeste 0 -- -- 60
2020-01-24 10:00:00 13.2 3 Norte 9 Noroeste 0 -- -- 62
2020-01-24 09:00:00 10.4 7 Noroeste 9 Noroeste 0 -- -- 75
2020-01-24 08:00:00 8.5 3 Oeste 6 Noroeste 0 -- -- 90
2020-01-24 07:00:00 9.4 3 Norte 9 Oeste 0 -- -- 86
2020-01-24 06:00:00 8.5 7 Sudoeste 12 Sudoeste 0 -- -- 95
2020-01-24 05:00:00 9.4 3 Nordeste 7 Nordeste 0 -- -- 94
2020-01-24 04:00:00 9.4 6 Sudoeste 13 Sudoeste 0 -- -- 93
2020-01-24 03:00:00 10.2 3 Nordeste 12 Norte 0 -- -- 97
2020-01-24 02:00:00 10.4 7 Norte 17 Noroeste 0 -- -- 97
2020-01-24 01:00:00 10 8 Norte 15 Norte 0 -- -- 96
2020-01-24 00:00:00 9.7 7 Noroeste 13 Noroeste 0 -- -- 96
2020-01-23 23:00:00 9.2 9 Noroeste 15 Noroeste 0 -- -- 96
2020-01-23 22:00:00 9.1 9 Norte 13 Norte 0 -- -- 95
2020-01-23 21:00:00 9.3 9 Noroeste 15 Norte 0 -- -- 93
2020-01-23 20:00:00 9.2 6 Norte 11 Norte 0 -- -- 93
2020-01-23 19:00:00 10 4 Norte 13 Norte 0 -- -- 87
2020-01-23 18:00:00 13.6 9 Norte 15 Norte 0 -- -- 73
2020-01-23 17:00:00 15.8 8 Norte 16 Norte 0 -- -- 65
2020-01-23 16:00:00 16.4 7 Norte 16 Norte 0 -- -- 66
2020-01-23 15:00:00 15.5 6 Norte 16 Norte 0 -- -- 63
2020-01-23 14:00:00 15.5 8 Norte 17 Nordeste 0 -- -- 62
2020-01-23 13:00:00 14.5 7 Norte 19 Norte 0 -- -- 79
2020-01-23 12:00:00 13.7 4 Norte 15 Norte 0 -- -- 88
2020-01-23 11:00:00 11.7 6 Nordeste 17 Norte 0 -- -- 91
2020-01-23 10:00:00 10.8 4 Norte 15 Noroeste 1 -- -- 96
2020-01-23 09:00:00 11.3 4 Norte 14 Norte 0 -- -- 89
2020-01-23 08:00:00 9.9 4 Norte 15 Nordeste 0 -- -- 96
2020-01-23 07:00:00 9.8 5 Norte 18 Norte 0 -- -- 97
2020-01-23 06:00:00 9.5 4 Nordeste 12 Nordeste 0 -- -- 96
2020-01-23 05:00:00 9.8 4 Norte 15 Norte 0 -- -- 96
2020-01-23 04:00:00 9.8 7 Norte 18 Nordeste 0 -- -- 96
2020-01-23 03:00:00 9.7 6 Norte 17 Nordeste 0 -- -- 95
2020-01-23 02:00:00 9.3 7 Nordeste 17 Nordeste 0 -- -- 95
2020-01-23 01:00:00 8.4 7 Norte 17 Norte 0 -- -- 94
2020-01-23 00:00:00 8.8 9 Norte 13 Noroeste 0 -- -- 95
2020-01-22 23:00:00 8.7 8 Norte 13 Noroeste 0 -- -- 94
2020-01-22 22:00:00 9.1 9 Norte 15 Noroeste 0 -- -- 91
2020-01-22 21:00:00 9.5 12 Noroeste 20 Noroeste 0 -- -- 86
2020-01-22 20:00:00 9.9 15 Noroeste 21 Noroeste 0 -- -- 84
2020-01-22 19:00:00 10.8 4 Norte 10 Norte 0 -- -- 79
2020-01-22 18:00:00 11.8 5 Nordeste 14 Norte 0 -- -- 76
2020-01-22 17:00:00 14.6 5 Norte 15 Nordeste 0 -- -- 64
2020-01-22 16:00:00 15.1 4 Noroeste 12 Este 0 -- -- 55
2020-01-22 15:00:00 14.7 3 Este 10 Sudoeste 0 -- -- 61
2020-01-22 14:00:00 13.3 5 Norte 13 Norte 0 -- -- 66
2020-01-22 13:00:00 13.3 5 Nordeste 15 Sudeste 0 -- -- 69
2020-01-22 12:00:00 14.9 6 Sur 12 Sudoeste 0 -- -- 64
2020-01-22 11:00:00 12 3 Este 8 Noroeste 0 -- -- 74
2020-01-22 10:00:00 10.9 4 Norte 7 Sudoeste 0 -- -- 82
2020-01-22 09:00:00 8.4 5 Sudoeste 10 Sudoeste 0 -- -- 84
2020-01-22 08:00:00 7.5 3 Oeste 14 Sudoeste 0 -- -- 82
2020-01-22 07:00:00 7.1 8 Sudoeste 15 Sudoeste 0 -- -- 85
2020-01-22 06:00:00 7.2 5 Sudoeste 12 Este 0 -- -- 93
2020-01-22 05:00:00 7.4 5 Sudoeste 13 Este 0 -- -- 96
2020-01-22 04:00:00 7.7 3 Este 15 Este 0 -- -- 95
2020-01-22 03:00:00 8 7 Este 14 Este 0 -- -- 96
2020-01-22 02:00:00 8 5 Este 14 Nordeste 0 -- -- 96
2020-01-22 01:00:00 8.2 8 Este 18 Este 0 -- -- 96
2020-01-22 00:00:00 8.3 10 Este 17 Este 0 -- -- 97
2020-01-21 23:00:00 8.4 6 Este 15 Este 0.2 -- -- 99
2020-01-21 22:00:00 8.2 5 Sur 12 Sudeste 0 -- -- 99
2020-01-21 21:00:00 9.2 4 Este 11 Norte 0 -- -- 99
2020-01-21 20:00:00 9 5 Nordeste 21 Nordeste 0 -- -- 99
2020-01-21 19:00:00 9 4 Sudoeste 19 Nordeste 3.6 -- -- 98
2020-01-21 18:00:00 9.7 4 Norte 11 Noroeste 0 -- -- 91
2020-01-21 17:00:00 11.7 4 Norte 11 Este 0 -- -- 88
2020-01-21 16:00:00 10.9 5 Nordeste 14 Nordeste 0 -- -- 91
2020-01-21 15:00:00 9.5 8 Norte 32 Este 8.4 -- -- 100
2020-01-21 14:00:00 11.9 6 Norte 18 Norte 1.2 -- -- 84
2020-01-21 13:00:00 12.5 6 Nordeste 13 Sudeste 0 -- -- 76
2020-01-21 12:00:00 10.7 6 Sur 19 Noroeste 0 -- -- 92
2020-01-21 11:00:00 13.8 4 Oeste 14 Sudeste 0 -- -- 67
2020-01-21 10:00:00 12.6 6 Norte 15 Sudeste 0 -- -- 69
2020-01-21 09:00:00 10.8 7 Sudoeste 15 Sudeste 0 -- -- 75
2020-01-21 08:00:00 10.1 5 Sudoeste 18 Sudoeste 0 -- -- 77
2020-01-21 07:00:00 10 5 Sudoeste 14 Este 0 -- -- 77
2020-01-21 06:00:00 9.9 6 Sur 15 Norte 0 -- -- 79
2020-01-21 05:00:00 10 7 Este 21 Este 0 -- -- 89
2020-01-21 04:00:00 10 5 Sudeste 19 Sudeste 0 -- -- 92
2020-01-21 03:00:00 10.2 8 Sudeste 18 Nordeste 0 -- -- 94
2020-01-21 02:00:00 10.3 5 Sudeste 17 Este 0 -- -- 90
2020-01-21 01:00:00 9.8 4 Sur 17 Sudeste 0 -- -- 85
2020-01-21 00:00:00 10.5 7 Sur 22 Este 0 -- -- 86
2020-01-20 23:00:00 10.7 6 Sur 22 Sudeste 0 -- -- 86
2020-01-20 22:00:00 10.4 7 Sur 23 Sudeste 0 -- -- 78
2020-01-20 21:00:00 10.7 9 Sur 22 Nordeste 0 -- -- 86
2020-01-20 20:00:00 10.6 9 Sur 18 Sur 0 -- -- 86
2020-01-20 19:00:00 11.1 6 Sudoeste 17 Sudoeste 0 -- -- 84
2020-01-20 18:00:00 11.6 6 Sur 17 Sur 0 -- -- 88
2020-01-20 17:00:00 12.8 4 Sur 13 Noroeste 0 -- -- 83
2020-01-20 16:00:00 13 4 Este 19 Sudeste 0 -- -- 83
2020-01-20 15:00:00 15.4 6 Sudeste 17 Sudeste 0 -- -- 67
2020-01-20 14:00:00 14.2 5 Sudeste 17 Sudeste 0 -- -- 73
2020-01-20 13:00:00 13.2 4 Norte 15 Este 0 -- -- 75
2020-01-20 12:00:00 13.8 4 Sur 16 Sur 0 -- -- 74
2020-01-20 11:00:00 12.7 5 Sudeste 19 Sudeste 0 -- -- 79
2020-01-20 10:00:00 11.6 5 Sudeste 19 Sur 0 -- -- 83
2020-01-20 09:00:00 10.7 6 Sur 18 Sur 0 -- -- 94
2020-01-20 08:00:00 10.3 5 Sudoeste 19 Sur 0 -- -- 94
2020-01-20 07:00:00 10.7 8 Sur 25 Sur 0 -- -- 99
2020-01-20 06:00:00 11.2 9 Sur 22 Nordeste 0 -- -- 100
2020-01-20 05:00:00 11.8 8 Sur 30 Este 0 -- -- 100
2020-01-20 04:00:00 12.1 6 Sudoeste 23 Este 0 -- -- 100
2020-01-20 03:00:00 12.4 7 Sur 24 Sudeste 0 -- -- 100
2020-01-20 02:00:00 12.9 10 Sudeste 22 Este 0 -- -- 100
2020-01-20 01:00:00 12.3 5 Sudeste 19 Nordeste 0 -- -- 98
2020-01-20 00:00:00 12.1 8 Sudeste 22 Sudeste 0 -- -- 98
2020-01-19 23:00:00 12.3 8 Este 22 Este 0 -- -- 98
2020-01-19 22:00:00 12.4 8 Sudeste 22 Sudeste 0 -- -- 96
2020-01-19 21:00:00 12.6 5 Sudeste 16 Nordeste 0 -- -- 95
2020-01-19 20:00:00 12.8 3 Norte 13 Noroeste 0 -- -- 92
2020-01-19 19:00:00 12.3 6 Norte 14 Nordeste 0 -- -- 88
2020-01-19 18:00:00 14.3 3 Norte 17 Norte 0 -- -- 82
2020-01-19 17:00:00 18.9 9 Norte 22 Norte 0 -- -- 64
2020-01-19 16:00:00 18.8 12 Norte 19 Noroeste 0 -- -- 64
2020-01-19 15:00:00 21.5 6 Norte 16 Norte 0 -- -- 41
2020-01-19 14:00:00 20 5 Norte 13 Sur 0 -- -- 30
2020-01-19 13:00:00 22 7 Sur 16 Sudeste 0 -- -- 39
2020-01-19 12:00:00 20.8 4 Norte 10 Nordeste 0 -- -- 29
2020-01-19 11:00:00 19.7 3 Norte 13 Sudoeste 0 -- -- 22
2020-01-19 10:00:00 18.5 13 Sudoeste 29 Sudoeste 0 -- -- 18
2020-01-19 09:00:00 15.9 14 Sur 23 Sur 0 -- -- 19
2020-01-19 08:00:00 15 13 Sur 24 Sudoeste 0 -- -- 20
2020-01-19 07:00:00 15.6 16 Sur 30 Sur 0 -- -- 18
2020-01-19 06:00:00 15.8 21 Sur 39 Sur 0 -- -- 18
2020-01-19 05:00:00 15.8 26 Sur 37 Sur 0 -- -- 17
2020-01-19 04:00:00 15.6 25 Sur 36 Sur 0 -- -- 16
2020-01-19 03:00:00 15.6 22 Sur 32 Sur 0 -- -- 16
2020-01-19 02:00:00 15 12 Sur 26 Sur 0 -- -- 16
2020-01-19 01:00:00 15.8 15 Sur 27 Sur 0 -- -- 14
2020-01-19 00:00:00 11.3 6 Noroeste 14 Norte 0 -- -- 87
2020-01-18 23:00:00 11.2 12 Norte 17 Norte 0 -- -- 71
2020-01-18 22:00:00 12.5 9 Norte 14 Norte 0 -- -- 41
2020-01-18 21:00:00 12.4 6 Norte 11 Nordeste 0 -- -- 48
2020-01-18 20:00:00 13.6 0 Calma 12 Este 0 -- -- 36
2020-01-18 19:00:00 13.9 6 Sudoeste 12 Sur 0 -- -- 42
2020-01-18 18:00:00 18.3 9 Sur 19 Sur 0 -- -- 29
2020-01-18 17:00:00 18.9 13 Sur 22 Sudoeste 0 -- -- 28
2020-01-18 16:00:00 20.9 12 Sur 23 Sur 0 -- -- 28
2020-01-18 15:00:00 20.7 12 Sur 27 Sudeste 0 -- -- 27
2020-01-18 14:00:00 21.2 13 Sur 36 Sur 0 -- -- 25
2020-01-18 13:00:00 20 24 Sur 46 Sur 0 -- -- 26
2020-01-18 12:00:00 18.1 27 Sur 41 Sur 0 -- -- 27
2020-01-18 11:00:00 17.4 30 Sur 47 Sur 0 -- -- 27
2020-01-18 10:00:00 16.3 30 Sur 46 Sur 0 -- -- 25
2020-01-18 09:00:00 14.9 26 Sur 37 Sur 0 -- -- 26
2020-01-18 08:00:00 12.7 22 Sur 31 Sudeste 0 -- -- 41
2020-01-18 07:00:00 10.2 10 Sudeste 15 Sudeste 0 -- -- 91
2020-01-18 06:00:00 10.4 5 Sudeste 12 Nordeste 0 -- -- 90
2020-01-18 05:00:00 10.5 5 Nordeste 9 Nordeste 0 -- -- 94
2020-01-18 04:00:00 12.3 6 Sur 25 Sur 0 -- -- 34
2020-01-18 03:00:00 12.7 15 Sur 21 Sur 0 -- -- 29
2020-01-18 02:00:00 12.7 9 Sur 21 Sur 0 -- -- 30
2020-01-18 01:00:00 11.3 5 Sudoeste 14 Sudoeste 0 -- -- 42
2020-01-18 00:00:00 10.7 10 Sudoeste 15 Sudoeste 0 -- -- 40
2020-01-17 23:00:00 10.9 3 Sur 14 Este 0 -- -- 42
2020-01-17 22:00:00 11.1 7 Sudoeste 14 Sudoeste 0 -- -- 41
2020-01-17 21:00:00 11.2 6 Este 9 Sudoeste 0 -- -- 51
2020-01-17 20:00:00 11.7 5 Sudoeste 10 Sudoeste 0 -- -- 39
2020-01-17 19:00:00 12.6 6 Sur 10 Sudoeste 0 -- -- 45
2020-01-17 18:00:00 17 7 Sur 13 Sur 0 -- -- 43
2020-01-17 17:00:00 18.8 9 Sur 19 Sur 0 -- -- 41
2020-01-17 16:00:00 19 10 Sur 24 Sudeste 0 -- -- 42
2020-01-17 15:00:00 19.5 14 Sur 27 Sudeste 0 -- -- 36
2020-01-17 14:00:00 20.2 17 Sur 30 Sur 0 -- -- 31
2020-01-17 13:00:00 20.1 17 Sur 38 Sur 0 -- -- 27
2020-01-17 12:00:00 18.2 18 Sur 37 Sudeste 0 -- -- 28
2020-01-17 11:00:00 17.1 22 Sur 40 Sudeste 0 -- -- 29
2020-01-17 10:00:00 15.4 17 Sur 29 Sur 0 -- -- 30
2020-01-17 09:00:00 12.5 10 Sur 21 Sur 0 -- -- 34
2020-01-17 08:00:00 9.5 4 Nordeste 8 Sudoeste 0 -- -- 90
2020-01-17 07:00:00 9.2 7 Sudoeste 14 Sudoeste 0 -- -- 70
2020-01-17 06:00:00 9.6 5 Sudoeste 13 Sudoeste 0 -- -- 48
2020-01-17 05:00:00 9.9 4 Nordeste 8 Oeste 0 -- -- 47
2020-01-17 04:00:00 10.6 5 Norte 12 Sudoeste 0 -- -- 38
2020-01-17 03:00:00 10.6 2 Sudeste 14 Sudoeste 0 -- -- 34
2020-01-17 02:00:00 10.7 6 Sur 18 Sudoeste 0 -- -- 36
2020-01-17 01:00:00 10.3 8 Sudoeste 14 Sudoeste 0 -- -- 43
2020-01-17 00:00:00 10.5 5 Sudoeste 14 Sudoeste 0 -- -- 45
2020-01-16 23:00:00 10.3 4 Sudoeste 12 Sudeste 0 -- -- 45
2020-01-16 22:00:00 10.5 5 Sur 13 Sudoeste 0 -- -- 48
2020-01-16 21:00:00 10.7 8 Sudoeste 12 Sudoeste 0 -- -- 49
2020-01-16 20:00:00 10.9 7 Sudoeste 10 Sudoeste 0 -- -- 63
2020-01-16 19:00:00 11.7 3 Sudoeste 10 Sudeste 0 -- -- 74
2020-01-16 18:00:00 15.5 7 Sur 15 Sudeste 0 -- -- 65
2020-01-16 17:00:00 17.3 10 Sur 18 Sudeste 0 -- -- 56
2020-01-16 16:00:00 18.6 10 Sudeste 21 Sudeste 0 -- -- 48
2020-01-16 15:00:00 16.6 6 Este 16 Sudeste 0 -- -- 47
2020-01-16 14:00:00 17.6 5 Este 18 Sur 0 -- -- 41
2020-01-16 13:00:00 18.8 6 Sudeste 21 Sudeste 0 -- -- 39
2020-01-16 12:00:00 18.7 12 Sudeste 23 Sur 0 -- -- 36
2020-01-16 11:00:00 17.1 13 Sur 24 Sudeste 0 -- -- 36
2020-01-16 10:00:00 15.3 9 Sur 17 Sudoeste 0 -- -- 35
2020-01-16 09:00:00 10.5 13 Sudoeste 18 Sudoeste 0 -- -- 41
2020-01-16 08:00:00 10 6 Sudoeste 22 Sudoeste 0 -- -- 39
2020-01-16 07:00:00 10.4 11 Sur 26 Sur 0 -- -- 37
2020-01-16 06:00:00 9.2 6 Sudoeste 15 Sudoeste 0 -- -- 41
2020-01-16 05:00:00 9.6 12 Sudoeste 19 Sudoeste 0 -- -- 40
2020-01-16 04:00:00 9.2 14 Sudoeste 22 Sudoeste 0 -- -- 42
2020-01-16 03:00:00 9.2 18 Sudoeste 23 Sudoeste 0 -- -- 41
2020-01-16 02:00:00 10.1 19 Sudoeste 24 Sudoeste 0 -- -- 37
2020-01-16 01:00:00 10.7 14 Sur 23 Sudeste 0 -- -- 36
2020-01-16 00:00:00 11.1 10 Sur 36 Sur 0 -- -- 38
2020-01-15 23:00:00 11.5 24 Sur 35 Sudoeste 0 -- -- 37
2020-01-15 22:00:00 11.2 18 Sur 33 Sudoeste 0 -- -- 37
2020-01-15 21:00:00 10.4 16 Sudoeste 22 Sudoeste 0 -- -- 39
2020-01-15 20:00:00 10.8 13 Sudoeste 20 Sur 0 -- -- 41
2020-01-15 19:00:00 11.1 11 Sudoeste 19 Sudoeste 0 -- -- 60
2020-01-15 18:00:00 14.6 11 Sur 19 Sur 0 -- -- 56
2020-01-15 17:00:00 17.5 6 Sudoeste 19 Sudeste 0 -- -- 47
2020-01-15 16:00:00 18.1 6 Sur 18 Sur 0 -- -- 45
2020-01-15 15:00:00 18.6 10 Sudeste 30 Sudeste 0 -- -- 44
2020-01-15 14:00:00 17.6 14 Sur 35 Sudeste 0 -- -- 51
2020-01-15 13:00:00 17.8 21 Sur 37 Sur 0 -- -- 53
2020-01-15 12:00:00 16.4 23 Sur 37 Sur 0 -- -- 55
2020-01-15 11:00:00 16.2 11 Sur 30 Sudoeste 0 -- -- 48
2020-01-15 10:00:00 13.7 18 Sur 28 Sudoeste 0 -- -- 47
2020-01-15 09:00:00 11.6 15 Sur 28 Sudoeste 0 -- -- 49
2020-01-15 08:00:00 10.4 19 Sur 30 Sur 0 -- -- 51
2020-01-15 07:00:00 10.6 18 Sudoeste 26 Sudoeste 0 -- -- 49
2020-01-15 06:00:00 10.4 16 Sudoeste 25 Sudoeste 0 -- -- 51
2020-01-15 05:00:00 10.6 14 Sudoeste 23 Sudoeste 0 -- -- 40
2020-01-15 04:00:00 11.1 17 Sudoeste 36 Sur 0 -- -- 36
2020-01-15 03:00:00 10.9 19 Sudoeste 35 Sudoeste 0 -- -- 37
2020-01-15 02:00:00 10.9 21 Sudoeste 35 Sur 0 -- -- 37
2020-01-15 01:00:00 10.9 20 Sur 30 Sur 0 -- -- 36
2020-01-15 00:00:00 9.7 19 Sudoeste 25 Sudoeste 0 -- -- 38
2020-01-14 23:00:00 9 13 Sudoeste 18 Sudoeste 0 -- -- 40
2020-01-14 22:00:00 9.9 12 Sudoeste 21 Sur 0 -- -- 36
2020-01-14 21:00:00 10.4 14 Sudoeste 24 Sudoeste 0 -- -- 38
2020-01-14 20:00:00 11.3 19 Sudoeste 30 Sudoeste 0 -- -- 58
2020-01-14 19:00:00 11.9 19 Sudoeste 28 Sudoeste 0 -- -- 55
2020-01-14 18:00:00 13.9 18 Sudoeste 41 Sudoeste 0 -- -- 44
2020-01-14 17:00:00 14.8 28 Sudoeste 40 Sudoeste 0 -- -- 47
2020-01-14 16:00:00 16.8 20 Sur 45 Sur 0 -- -- 45
2020-01-14 15:00:00 16.9 19 Sur 49 Sur 0 -- -- 45
2020-01-14 14:00:00 16.9 27 Sur 50 Sudeste 0 -- -- 47
2020-01-14 13:00:00 16.1 28 Sur 49 Sur 0 -- -- 53
2020-01-14 12:00:00 15.8 30 Sur 52 Sur 0 -- -- 58
2020-01-14 11:00:00 15.5 26 Sur 49 Sur 0 -- -- 62
2020-01-14 10:00:00 14.2 24 Sur 53 Sudoeste 0 -- -- 65
2020-01-14 09:00:00 12.6 38 Sudoeste 58 Sudoeste 0 -- -- 69
2020-01-14 08:00:00 11.7 32 Sur 48 Sur 0 -- -- 75
2020-01-14 07:00:00 11.8 27 Sur 40 Sur 0 -- -- 59
2020-01-14 06:00:00 12.4 24 Sur 37 Sur 0 -- -- 45
2020-01-14 05:00:00 13.1 22 Sur 53 Sur 0 -- -- 34
2020-01-14 04:00:00 13.3 24 Sur 45 Sur 0 -- -- 32
2020-01-14 03:00:00 12.1 10 Sur 22 Sudoeste 0 -- -- 35
2020-01-14 02:00:00 12 12 Sur 25 Sudeste 0 -- -- 41
2020-01-14 01:00:00 11.9 8 Sudoeste 27 Sur 0 -- -- 48
2020-01-14 00:00:00 11.4 10 Sur 28 Sur 0 -- -- 74
2020-01-13 23:00:00 11.4 20 Sur 35 Sur 0 -- -- 78
2020-01-13 22:00:00 11.8 18 Sur 31 Sudeste 0 -- -- 66
2020-01-13 21:00:00 12 22 Sudoeste 35 Sur 0 -- -- 78
2020-01-13 20:00:00 12.3 22 Sur 34 Sur 0 -- -- 71
2020-01-13 19:00:00 12 17 Sur 29 Sur 0 -- -- 83
2020-01-13 18:00:00 15.4 10 Sur 21 Sur 0 -- -- 68
2020-01-13 17:00:00 17.3 12 Sur 22 Sur 0 -- -- 64
2020-01-13 16:00:00 18.3 12 Sur 25 Sudeste 0 -- -- 55
2020-01-13 15:00:00 19.3 11 Sur 27 Sur 0 -- -- 43
2020-01-13 14:00:00 19.2 16 Sur 27 Sur 0 -- -- 47
2020-01-13 13:00:00 19.4 16 Sur 26 Sudeste 0 -- -- 46
2020-01-13 12:00:00 18.7 13 Sur 19 Sur 0 -- -- 48
2020-01-13 11:00:00 16.1 8 Sudeste 13 Sur 0 -- -- 60
2020-01-13 10:00:00 12.5 5 Nordeste 10 Nordeste 0 -- -- 75
2020-01-13 09:00:00 10.1 3 Norte 9 Norte 0 -- -- 87
2020-01-13 08:00:00 8.9 6 Norte 14 Norte 0 -- -- 91
2020-01-13 07:00:00 9.1 9 Norte 15 Norte 0 -- -- 100
2020-01-13 06:00:00 9.4 11 Norte 17 Norte 0 -- -- 100
2020-01-13 05:00:00 9.2 9 Norte 13 Norte 0 -- -- 100
2020-01-13 04:00:00 9.7 2 Oeste 12 Este 0 -- -- 100
2020-01-13 03:00:00 9.7 3 Este 8 Nordeste 0 -- -- 99
2020-01-13 02:00:00 10.1 5 Este 11 Nordeste 0 -- -- 97
2020-01-13 01:00:00 10.7 7 Nordeste 14 Nordeste 0 -- -- 96
2020-01-13 00:00:00 11.2 5 Este 10 Sudeste 0 -- -- 95
2020-01-12 23:00:00 11.4 9 Sudeste 19 Este 0 -- -- 94
2020-01-12 22:00:00 11.3 7 Sudeste 15 Sudeste 0 -- -- 92
2020-01-12 21:00:00 11.6 6 Sudeste 20 Sudeste 0 -- -- 97
2020-01-12 20:00:00 11.7 10 Sudeste 28 Sudeste 0 -- -- 98
2020-01-12 19:00:00 11.8 8 Sudeste 19 Este 0 -- -- 95
2020-01-12 18:00:00 11.8 3 Sudeste 9 Este 0 -- -- 89
2020-01-12 17:00:00 12.2 6 Sudeste 14 Nordeste 0 -- -- 87
2020-01-12 16:00:00 12.4 3 Sudoeste 14 Este 0 -- -- 88
2020-01-12 15:00:00 12.3 7 Oeste 21 Nordeste 0 -- -- 91
2020-01-12 14:00:00 12.9 4 Sur 16 Este 0 -- -- 86
2020-01-12 13:00:00 14.2 3 Sudoeste 13 Noroeste 0 -- -- 83
2020-01-12 12:00:00 13.8 4 Este 10 Este 0 -- -- 81
2020-01-12 11:00:00 13.1 7 Sudeste 24 Sudeste 0 -- -- 85
2020-01-12 10:00:00 13.3 5 Sudeste 19 Sudeste 0 -- -- 86
2020-01-12 09:00:00 11.5 6 Este 17 Sudeste 0 -- -- 93
2020-01-12 08:00:00 11 8 Sudeste 22 Sudeste 0 -- -- 93
2020-01-12 07:00:00 10.8 8 Este 26 Nordeste 0 -- -- 95
2020-01-12 06:00:00 10.7 6 Sudeste 20 Este 0 -- -- 94
2020-01-12 05:00:00 10.3 9 Sudeste 23 Este 0 -- -- 93
2020-01-12 04:00:00 10.7 5 Sudeste 20 Nordeste 0 -- -- 96
2020-01-12 03:00:00 10.6 7 Sudeste 16 Sudeste 0 -- -- 94
2020-01-12 02:00:00 10.6 5 Este 19 Sudeste 0 -- -- 96
2020-01-12 01:00:00 10.3 9 Sudeste 24 Sudeste 0 -- -- 98
2020-01-12 00:00:00 10.7 4 Sudeste 19 Sudeste 0 -- -- 99
2020-01-11 23:00:00 10.5 6 Sudeste 21 Sudeste 0 -- -- 99
2020-01-11 22:00:00 10.6 5 Sudeste 25 Sudeste 0 -- -- 98
2020-01-11 21:00:00 10.7 8 Este 19 Sudeste 0.2 -- -- 99
2020-01-11 20:00:00 11.4 11 Sudeste 26 Sudeste 0 -- -- 97
2020-01-11 19:00:00 11.2 8 Sudeste 22 Sudeste 0 -- -- 97
2020-01-11 18:00:00 11.8 7 Sudeste 19 Sur 0 -- -- 87
2020-01-11 17:00:00 12.6 6 Sudeste 23 Este 0 -- -- 85
2020-01-11 16:00:00 12.5 10 Sudeste 21 Sudeste 0 -- -- 89
2020-01-11 15:00:00 12.5 6 Sudeste 20 Nordeste 0 -- -- 92
2020-01-11 14:00:00 13.1 5 Sudeste 16 Este 0 -- -- 84
2020-01-11 13:00:00 14.5 6 Sudeste 17 Este 0 -- -- 77
2020-01-11 12:00:00 13.1 5 Sudeste 15 Este 0 -- -- 85
2020-01-11 11:00:00 12.9 8 Sudeste 19 Este 0 -- -- 90
2020-01-11 10:00:00 11.5 7 Sudeste 16 Sudeste 0 -- -- 92
2020-01-11 09:00:00 10.5 5 Sudeste 19 Este 0 -- -- 95
2020-01-11 08:00:00 10.4 4 Sudeste 16 Este 0 -- -- 98
2020-01-11 07:00:00 10.7 5 Este 15 Nordeste 0 -- -- 100
2020-01-11 06:00:00 10.6 8 Este 22 Este 0 -- -- 100
2020-01-11 05:00:00 11.3 5 Sudeste 22 Sudeste 0 -- -- 100
2020-01-11 04:00:00 12 6 Sudeste 26 Sudeste 0.4 -- -- 100
2020-01-11 03:00:00 12.2 8 Sudeste 20 Este 0 -- -- 100
2020-01-11 02:00:00 12.3 9 Este 22 Este 0 -- -- 100
2020-01-11 01:00:00 12.1 7 Sudeste 16 Nordeste 0.2 -- -- 100
2020-01-11 00:00:00 12.1 4 Sur 22 Sudeste 0 -- -- 100
2020-01-10 23:00:00 12.2 5 Este 16 Nordeste 0 -- -- 100
2020-01-10 22:00:00 12.1 7 Este 19 Este 0 -- -- 100
2020-01-10 21:00:00 12.1 7 Sudeste 22 Este 0 -- -- 100
2020-01-10 20:00:00 12.4 7 Este 19 Este 0 -- -- 100
2020-01-10 19:00:00 12.1 5 Este 22 Nordeste 0 -- -- 100
2020-01-10 18:00:00 12.4 6 Sudeste 20 Sudeste 0 -- -- 100
2020-01-10 17:00:00 12.8 6 Sudeste 25 Sudeste 0 -- -- 100
2020-01-10 16:00:00 13.1 11 Sudeste 24 Este 0 -- -- 98
2020-01-10 15:00:00 13.5 9 Sudeste 26 Este 0 -- -- 99
2020-01-10 14:00:00 13 9 Sudeste 21 Este 0.8 -- -- 100
2020-01-10 13:00:00 12.8 8 Este 27 Este 0.8 -- -- 100
2020-01-10 12:00:00 12.9 9 Sudeste 26 Nordeste 0 -- -- 100
2020-01-10 11:00:00 12.8 12 Sudeste 29 Este 0 -- -- 100
2020-01-10 10:00:00 12.4 8 Este 25 Este 0 -- -- 100
2020-01-10 09:00:00 12.4 9 Este 26 Este 0 -- -- 99
2020-01-10 08:00:00 11.8 7 Este 25 Este 0 -- -- 100
2020-01-10 07:00:00 11.9 6 Este 19 Sudeste 0 -- -- 99
2020-01-10 06:00:00 11.5 6 Este 24 Sudeste 0 -- -- 99
2020-01-10 05:00:00 11.8 6 Sudeste 24 Este 0 -- -- 98
2020-01-10 04:00:00 11.5 8 Sudeste 25 Este 0 -- -- 96
2020-01-10 03:00:00 11.8 10 Este 32 Este 0 -- -- 92
2020-01-10 02:00:00 11.5 14 Sudeste 28 Sudeste 0 -- -- 88
2020-01-10 01:00:00 11.6 15 Sudeste 30 Sudeste 0 -- -- 89
2020-01-10 00:00:00 11.6 13 Sudeste 29 Sudeste 0 -- -- 89
2020-01-09 23:00:00 11.5 15 Sudeste 33 Sudeste 0 -- -- 91
2020-01-09 22:00:00 11.5 12 Este 28 Nordeste 0 -- -- 84
2020-01-09 21:00:00 11.4 13 Este 28 Este 0 -- -- 87
2020-01-09 20:00:00 11.8 8 Sudeste 25 Este 0 -- -- 91
2020-01-09 19:00:00 11.7 9 Sudeste 22 Sur 0 -- -- 84
2020-01-09 18:00:00 12.3 9 Sur 24 Sudeste 0 -- -- 83
2020-01-09 17:00:00 13.3 8 Sudeste 24 Este 0 -- -- 78
2020-01-09 16:00:00 15.2 6 Sudeste 19 Sudeste 0 -- -- 71
2020-01-09 15:00:00 15 9 Sudeste 21 Sudeste 0 -- -- 75
2020-01-09 14:00:00 15.9 9 Sudeste 25 Sudeste 0 -- -- 69
2020-01-09 13:00:00 14.6 7 Sur 24 Sudeste 0 -- -- 74
2020-01-09 12:00:00 15 6 Sudeste 21 Este 0 -- -- 76
2020-01-09 11:00:00 14 7 Sudeste 26 Este 0 -- -- 75
2020-01-09 10:00:00 11.6 8 Sudeste 24 Este 0 -- -- 90
2020-01-09 09:00:00 11.2 9 Sudeste 28 Este 0 -- -- 94
2020-01-09 08:00:00 11.1 12 Sudeste 25 Este 0 -- -- 97
2020-01-09 07:00:00 11.2 13 Sudeste 27 Sudeste 0 -- -- 97
2020-01-09 06:00:00 11.1 6 Sudeste 18 Nordeste 0 -- -- 96
2020-01-09 05:00:00 10.6 5 Este 27 Este 0 -- -- 91
2020-01-09 04:00:00 10.5 9 Este 19 Nordeste 0 -- -- 95
2020-01-09 03:00:00 11 11 Sudeste 26 Este 0 -- -- 95
2020-01-09 02:00:00 11 10 Este 30 Nordeste 0 -- -- 93
2020-01-09 01:00:00 11.1 7 Sudeste 17 Este 0 -- -- 92
2020-01-09 00:00:00 11.1 6 Sudeste 29 Sudeste 0 -- -- 92
2020-01-08 23:00:00 10.7 10 Sudeste 25 Este 0 -- -- 91
2020-01-08 22:00:00 11.1 10 Sudeste 26 Este 0 -- -- 93
2020-01-08 21:00:00 10.9 8 Sudeste 23 Este 0 -- -- 87
2020-01-08 20:00:00 11.2 9 Sudeste 23 Este 0 -- -- 89
2020-01-08 19:00:00 11.4 8 Sur 21 Este 0 -- -- 90
2020-01-08 18:00:00 11.7 7 Sur 17 Sudeste 0 -- -- 90
2020-01-08 17:00:00 12.3 7 Sudeste 19 Este 0 -- -- 85
2020-01-08 16:00:00 12.7 9 Sur 22 Este 0 -- -- 87
2020-01-08 15:00:00 13 7 Sudeste 23 Este 0 -- -- 85
2020-01-08 14:00:00 12.5 8 Sudeste 27 Sudeste 0 -- -- 87
2020-01-08 13:00:00 13.6 7 Sudeste 26 Nordeste 0 -- -- 82
2020-01-08 12:00:00 12.8 8 Sudeste 22 Este 0 -- -- 85
2020-01-08 11:00:00 12.2 12 Sudeste 34 Este 0 -- -- 94
2020-01-08 10:00:00 11.6 10 Sudeste 26 Este 0 -- -- 95
2020-01-08 09:00:00 11.6 8 Sudeste 21 Sudeste 0 -- -- 95
2020-01-08 08:00:00 11.2 6 Sudeste 17 Este 0 -- -- 96
2020-01-08 07:00:00 10.8 6 Sudeste 22 Sudeste 0 -- -- 95
2020-01-08 06:00:00 11 11 Sudeste 20 Sudeste 0 -- -- 94
2020-01-08 05:00:00 10.9 9 Sudeste 21 Sudeste 0 -- -- 93
2020-01-08 04:00:00 11.2 6 Este 22 Este 0 -- -- 95
2020-01-08 03:00:00 11.2 8 Sudeste 25 Sudeste 0 -- -- 91
2020-01-08 02:00:00 11.2 5 Sudeste 21 Sudeste 0 -- -- 95
2020-01-08 01:00:00 10.3 9 Sudeste 20 Sur 0 -- -- 92
2020-01-08 00:00:00 10.7 12 Sudeste 26 Sudeste 0 -- -- 88
2020-01-07 23:00:00 10.8 11 Sudeste 23 Sudeste 0 -- -- 90
2020-01-07 22:00:00 11.4 10 Sudeste 21 Este 0 -- -- 91
2020-01-07 21:00:00 11.7 5 Sudeste 18 Este 0 -- -- 90
2020-01-07 20:00:00 11.8 6 Sudeste 21 Norte 0 -- -- 92
2020-01-07 19:00:00 11.9 9 Este 18 Nordeste 0 -- -- 91
2020-01-07 18:00:00 12.2 7 Este 19 Este 0 -- -- 87
2020-01-07 17:00:00 12.7 7 Sudeste 17 Sudeste 0 -- -- 85
2020-01-07 16:00:00 13 7 Sudeste 20 Sudeste 0 -- -- 84
2020-01-07 15:00:00 13.6 7 Sudeste 19 Sudeste 0 -- -- 82
2020-01-07 14:00:00 15.4 10 Sudeste 19 Sudeste 0 -- -- 71
2020-01-07 13:00:00 14.9 5 Sudeste 27 Sudeste 0 -- -- 71
2020-01-07 12:00:00 15.5 17 Sudeste 30 Sudeste 0 -- -- 74
2020-01-07 11:00:00 13.2 16 Sudeste 31 Sudeste 0 -- -- 81
2020-01-07 10:00:00 12.8 10 Sudeste 20 Este 0 -- -- 87
2020-01-07 09:00:00 11.2 8 Sudeste 22 Sudeste 0 -- -- 86
2020-01-07 08:00:00 10.9 14 Sudeste 31 Nordeste 0 -- -- 92
2020-01-07 07:00:00 10.4 10 Sudeste 31 Este 0 -- -- 89
2020-01-07 06:00:00 10.9 13 Sudeste 30 Este 0 -- -- 85
2020-01-07 05:00:00 11 11 Sudeste 34 Este 0 -- -- 82
2020-01-07 04:00:00 11.2 13 Este 36 Este 0 -- -- 94
2020-01-07 03:00:00 11.5 13 Sudeste 32 Sudeste 0 -- -- 95
2020-01-07 02:00:00 11.2 9 Sudeste 30 Sudeste 0 -- -- 94
2020-01-07 01:00:00 11 12 Este 31 Este 0 -- -- 92
2020-01-07 00:00:00 10.8 10 Sudeste 30 Este 0 -- -- 94
2020-01-06 23:00:00 11.5 12 Sudeste 29 Sudeste 0.2 -- -- 98
2020-01-06 22:00:00 11.8 10 Sudeste 23 Nordeste 0 -- -- 95
2020-01-06 21:00:00 11.8 10 Sudeste 27 Este 0 -- -- 93
2020-01-06 20:00:00 12 10 Sudeste 18 Sudeste 0 -- -- 92
2020-01-06 19:00:00 11.9 9 Sudoeste 21 Sudoeste 0 -- -- 88
2020-01-06 18:00:00 12.5 8 Sudeste 17 Nordeste 0 -- -- 86
2020-01-06 17:00:00 13.9 7 Sudeste 18 Sudeste 0 -- -- 79
2020-01-06 16:00:00 14.8 7 Sudeste 22 Este 0 -- -- 75
2020-01-06 15:00:00 16 8 Sudeste 23 Sudeste 0 -- -- 66
2020-01-06 14:00:00 16.2 7 Sudeste 23 Sudeste 0 -- -- 65
2020-01-06 13:00:00 16.2 11 Sudeste 30 Sudeste 0 -- -- 63
2020-01-06 12:00:00 14.8 10 Este 24 Sudeste 0 -- -- 71
2020-01-06 11:00:00 12.9 9 Sudeste 24 Este 0 -- -- 87
2020-01-06 10:00:00 11.7 8 Sudeste 26 Este 0 -- -- 100
2020-01-06 09:00:00 11.1 8 Este 21 Nordeste 0 -- -- 100